Time;durP1;ratioP1;P1;durP2;ratioP2;P2;SDS_P1;SDS_P2;PMS_P1;PMS_P2;Temp;Humidity;BMP_temperature;BMP_pressure;BME280_temperature;BME280_humidity;BME280_pressure;Samples;Min_cycle;Max_cycle;Signal;HPM_P1;HPM_P2
2022/12/15 00:41:26;;;;;;;50.28;33.25;;;128.20;2252.80;;;;;;4958033;29;20043;-88
2022/12/15 00:44:01;;;;;;;55.72;37.05;;;128.20;2252.80;;;;;;4957738;29;20114;-87
2022/12/15 01:22:01;;;;;;;34.88;25.05;;;128.50;2252.80;;;;;;4956392;28;20086;-88
2022/12/15 01:24:27;;;;;;;50.45;33.75;;;128.50;2252.80;;;;;;4955694;29;20122;-89
2022/12/15 01:26:53;;;;;;;40.10;28.00;;;128.50;2252.80;;;;;;4956070;29;20479;-88
2022/12/15 01:29:20;;;;;;;38.63;26.63;;;128.50;2252.80;;;;;;4955873;29;20054;-90
2022/12/15 01:31:46;;;;;;;76.55;47.70;;;128.50;2252.80;;;;;;4956110;29;20384;-89
2022/12/15 01:34:12;;;;;;;130.63;80.40;;;128.40;2252.80;;;;;;4955932;29;20142;-89
2022/12/15 01:36:38;;;;;;;103.60;70.78;;;128.50;2252.80;;;;;;4955743;29;20070;-89
2022/12/15 01:39:04;;;;;;;94.50;59.00;;;128.50;2252.80;;;;;;4955677;29;20028;-89
2022/12/15 01:41:30;;;;;;;63.90;46.38;;;128.50;2252.80;;;;;;4955599;29;20030;-89
2022/12/15 01:44:18;;;;;;;59.88;41.63;;;128.40;2252.80;;;;;;4955467;29;20062;-91
2022/12/15 01:46:45;;;;;;;72.55;48.95;;;128.50;2252.80;;;;;;4955704;29;20037;-89
2022/12/15 01:49:16;;;;;;;61.92;43.10;;;128.50;2252.80;;;;;;4955592;29;20035;-89
2022/12/15 01:51:47;;;;;;;55.58;38.22;;;128.50;2252.80;;;;;;4955455;29;20039;-90
2022/12/15 01:54:19;;;;;;;46.13;34.85;;;128.40;2252.80;;;;;;4955622;29;20471;-89
2022/12/15 01:56:53;;;;;;;60.58;47.15;;;128.40;2252.80;;;;;;4955370;29;20146;-89
2022/12/15 01:59:31;;;;;;;47.75;35.08;;;128.50;2252.80;;;;;;4955355;29;20494;-89
2022/12/15 02:01:57;;;;;;;48.80;34.20;;;128.40;2252.80;;;;;;4955532;29;20074;-89
2022/12/15 02:04:24;;;;;;;45.67;33.55;;;128.30;2252.80;;;;;;4964659;28;20035;-89
2022/12/15 02:06:51;;;;;;;54.00;37.33;;;128.30;2252.80;;;;;;4979667;28;20023;-89
2022/12/15 02:09:19;;;;;;;84.25;52.30;;;128.40;2252.80;;;;;;4979718;28;20045;-86
2022/12/15 02:11:51;;;;;;;76.90;48.85;;;128.50;2252.80;;;;;;4979442;28;20023;-84
2022/12/15 02:14:31;;;;;;;70.70;45.67;;;128.50;2252.80;;;;;;4956095;29;20066;-91
2022/12/15 02:16:57;;;;;;;72.15;43.97;;;128.50;2252.80;;;;;;4955518;29;20019;-89
2022/12/15 02:19:41;;;;;;;78.22;46.38;;;128.50;2252.80;;;;;;4955475;29;20383;-89
2022/12/15 02:22:23;;;;;;;61.25;42.28;;;128.60;2252.80;;;;;;4955631;29;20031;-90
2022/12/15 02:25:08;;;;;;;62.70;40.17;;;128.60;2252.80;;;;;;4955654;29;20042;-88
2022/12/15 02:27:55;;;;;;;60.20;36.35;;;128.60;2252.80;;;;;;4955481;29;20391;-89
2022/12/15 02:30:39;;;;;;;54.30;35.13;;;128.60;2252.80;;;;;;4955003;29;20027;-88
2022/12/15 02:33:19;;;;;;;34.35;24.65;;;128.60;2252.80;;;;;;4954745;29;20032;-90
2022/12/15 02:35:54;;;;;;;27.02;19.45;;;128.60;2252.80;;;;;;4960139;28;20042;-87
2022/12/15 02:38:33;;;;;;;22.50;15.70;;;128.60;2252.80;;;;;;4974665;28;20058;-90
2022/12/15 02:41:01;;;;;;;18.40;13.80;;;128.50;2252.80;;;;;;4973738;28;20023;-89
2022/12/15 02:43:30;;;;;;;16.67;12.52;;;128.50;2252.80;;;;;;4974483;28;20027;-90
2022/12/15 02:46:25;;;;;;;19.90;15.02;;;128.50;2252.80;;;;;;4974342;28;20031;-90
2022/12/15 02:49:26;;;;;;;22.75;15.98;;;128.50;2252.80;;;;;;4974236;28;20117;-89
2022/12/15 02:52:32;;;;;;;27.50;18.65;;;128.60;2252.80;;;;;;4990501;28;20031;-88
2022/12/15 02:55:07;;;;;;;29.90;20.40;;;128.50;2252.80;;;;;;4974101;28;20059;-90
2022/12/15 02:57:51;;;;;;;33.80;22.58;;;128.60;2252.80;;;;;;4973677;28;20054;-89
2022/12/15 03:00:17;;;;;;;35.33;23.77;;;128.50;2252.80;;;;;;4973999;28;20031;-89
2022/12/15 03:02:50;;;;;;;28.23;19.63;;;128.40;2252.80;;;;;;4974382;28;20031;-89
2022/12/15 03:05:17;;;;;;;26.00;19.55;;;128.40;2252.80;;;;;;4974277;28;20452;-89
2022/12/15 03:07:43;;;;;;;27.38;18.80;;;128.40;2252.80;;;;;;4974022;28;20038;-88
2022/12/15 03:10:12;;;;;;;25.35;19.00;;;128.40;2252.80;;;;;;4974156;28;20460;-89
2022/12/15 03:12:38;;;;;;;28.55;21.50;;;128.30;2252.80;;;;;;4973966;28;20070;-89
2022/12/15 03:15:05;;;;;;;25.05;17.92;;;128.40;2252.80;;;;;;4973816;28;20030;-90
2022/12/15 03:17:30;;;;;;;25.77;18.63;;;128.40;2252.80;;;;;;4974184;28;20031;-89
2022/12/15 03:19:56;;;;;;;19.52;14.52;;;128.40;2252.80;;;;;;4974075;28;20113;-90
2022/12/15 03:22:22;;;;;;;18.00;13.98;;;128.40;2252.80;;;;;;4973883;28;20135;-89
2022/12/15 03:24:48;;;;;;;17.17;13.93;;;128.40;2252.80;;;;;;4973841;28;20026;-88
2022/12/15 03:27:14;;;;;;;13.23;11.73;;;128.30;2252.80;;;;;;4974077;28;20069;-90
2022/12/15 03:29:40;;;;;;;17.13;11.95;;;128.30;2252.80;;;;;;4973992;28;20031;-90
2022/12/15 03:32:06;;;;;;;17.67;12.30;;;128.40;2252.80;;;;;;4973893;28;20073;-90
2022/12/15 03:34:32;;;;;;;20.33;14.73;;;128.40;2252.80;;;;;;4973846;28;20360;-89
2022/12/15 03:36:58;;;;;;;21.25;14.93;;;128.30;2252.80;;;;;;4973744;28;20030;-90
2022/12/15 03:39:23;;;;;;;29.83;19.75;;;128.40;2252.80;;;;;;4973929;28;20054;-89
2022/12/15 03:41:49;;;;;;;34.30;21.17;;;128.40;2252.80;;;;;;4973870;28;20529;-91
2022/12/15 03:44:15;;;;;;;27.08;18.52;;;128.40;2252.80;;;;;;4973692;28;20038;-90
2022/12/15 03:46:41;;;;;;;25.58;18.23;;;128.30;2252.80;;;;;;4977344;28;20030;-90
2022/12/15 03:49:07;;;;;;;27.15;17.60;;;128.30;2252.80;;;;;;4977122;28;20078;-90
2022/12/15 03:51:33;;;;;;;33.42;22.08;;;128.40;2252.80;;;;;;4977004;28;20027;-89
2022/12/15 03:53:58;;;;;;;39.80;24.95;;;128.40;2252.80;;;;;;4977295;28;20031;-90
2022/12/15 03:56:24;;;;;;;28.17;19.83;;;128.40;2252.80;;;;;;4976941;28;20057;-90
2022/12/15 03:58:50;;;;;;;29.48;20.20;;;128.50;2252.80;;;;;;4977118;28;20113;-90
2022/12/15 04:01:28;;;;;;;33.60;22.45;;;128.50;2252.80;;;;;;4977049;28;20023;-89
2022/12/15 04:03:55;;;;;;;35.00;24.02;;;128.60;2252.80;;;;;;4976863;28;20142;-90
2022/12/15 04:06:22;;;;;;;34.75;25.02;;;128.60;2252.80;;;;;;4977118;28;20103;-89
2022/12/15 04:08:48;;;;;;;37.20;24.55;;;128.60;2252.80;;;;;;4977130;28;20027;-89
2022/12/15 04:11:14;;;;;;;26.83;20.70;;;128.50;2252.80;;;;;;4976867;28;20027;-89
2022/12/15 04:13:40;;;;;;;36.75;25.13;;;128.50;2252.80;;;;;;4976764;28;20027;-91
2022/12/15 04:16:06;;;;;;;50.10;35.28;;;128.60;2252.80;;;;;;4976863;28;20380;-89
2022/12/15 04:18:32;;;;;;;41.42;29.08;;;128.40;2252.80;;;;;;4976636;28;20042;-89
2022/12/15 04:20:57;;;;;;;37.50;27.08;;;128.40;2252.80;;;;;;4976725;28;20027;-91
2022/12/15 04:23:23;;;;;;;53.35;37.33;;;128.50;2252.80;;;;;;4976683;28;20030;-90
2022/12/15 05:32:17;;;;;;;65.82;38.28;;;128.20;2252.80;;;;;;4976571;28;20033;-89
2022/12/15 05:34:43;;;;;;;105.55;58.38;;;128.20;2252.80;;;;;;4974902;28;20398;-89
2022/12/15 05:37:09;;;;;;;111.45;56.20;;;128.30;2252.80;;;;;;4975281;28;20081;-89
2022/12/15 05:39:35;;;;;;;68.72;36.38;;;128.20;2252.80;;;;;;4975315;28;20033;-89
2022/12/15 05:42:01;;;;;;;62.15;37.28;;;128.30;2252.80;;;;;;4975110;28;20030;-90
2022/12/15 05:44:28;;;;;;;68.15;38.65;;;128.40;2252.80;;;;;;4973951;28;20069;-89
2022/12/15 05:46:53;;;;;;;58.28;35.92;;;128.40;2252.80;;;;;;4957069;28;20118;-90
2022/12/15 05:49:22;;;;;;;56.28;33.83;;;128.40;2252.80;;;;;;4955380;29;20062;-88
2022/12/15 05:51:48;;;;;;;55.97;36.33;;;128.40;2252.80;;;;;;4955400;29;20023;-89
2022/12/15 05:54:16;;;;;;;65.88;43.53;;;128.50;2252.80;;;;;;4955968;29;20086;-89
2022/12/15 05:56:42;;;;;;;73.88;51.90;;;128.40;2252.80;;;;;;4955395;29;20055;-90
2022/12/15 05:59:08;;;;;;;98.75;67.15;;;128.40;2252.80;;;;;;4955861;29;20035;-92
2022/12/15 06:01:34;;;;;;;114.57;76.70;;;128.50;2252.80;;;;;;4955728;29;20023;-89
2022/12/15 06:04:00;;;;;;;110.00;73.20;;;128.50;2252.80;;;;;;4955471;29;20038;-92
2022/12/15 06:06:26;;;;;;;106.88;75.63;;;128.50;2252.80;;;;;;4955597;29;20471;-90
2022/12/15 06:08:52;;;;;;;129.02;84.25;;;128.50;2252.80;;;;;;4955067;28;20066;-90
2022/12/15 06:11:19;;;;;;;110.45;75.32;;;128.40;2252.80;;;;;;4955662;29;20035;-89
2022/12/15 06:13:45;;;;;;;79.90;55.80;;;128.40;2252.80;;;;;;4955447;29;20043;-89
2022/12/15 06:16:14;;;;;;;77.57;54.95;;;128.40;2252.80;;;;;;4955350;29;20039;-90
2022/12/15 06:18:45;;;;;;;90.63;64.15;;;128.40;2252.80;;;;;;4955389;29;20131;-90
2022/12/15 06:21:14;;;;;;;100.50;66.05;;;128.40;2252.80;;;;;;4955471;29;20023;-90
2022/12/15 06:23:41;;;;;;;85.22;59.42;;;128.40;2252.80;;;;;;4955416;29;20066;-91
2022/12/15 06:26:34;;;;;;;84.20;57.67;;;128.30;2252.80;;;;;;4955340;29;20490;-91
2022/12/15 06:29:02;;;;;;;64.47;44.33;;;128.20;2252.80;;;;;;4952859;29;20043;-88
2022/12/15 06:31:29;;;;;;;63.65;43.92;;;128.10;2252.80;;;;;;4955147;29;20034;-90
2022/12/15 06:33:55;;;;;;;66.93;46.95;;;128.20;2252.80;;;;;;4955315;29;20027;-90
2022/12/15 06:36:25;;;;;;;78.97;54.03;;;128.20;2252.80;;;;;;4955432;29;20133;-89
2022/12/15 06:38:51;;;;;;;83.47;57.88;;;128.20;2252.80;;;;;;4955066;29;20067;-90
2022/12/15 06:41:19;;;;;;;87.80;60.47;;;128.30;2252.80;;;;;;4955547;29;20039;-91
2022/12/15 06:43:50;;;;;;;83.47;57.72;;;128.40;2252.80;;;;;;4955340;29;20034;-90
2022/12/15 06:46:16;;;;;;;87.30;59.60;;;128.40;2252.80;;;;;;4954960;29;20123;-91
2022/12/15 06:48:44;;;;;;;77.40;56.00;;;128.40;2252.80;;;;;;4955340;29;20125;-89
2022/12/15 06:51:12;;;;;;;82.63;52.83;;;128.40;2252.80;;;;;;4955280;29;20028;-91
2022/12/15 06:53:39;;;;;;;91.90;62.33;;;128.20;2252.80;;;;;;4955218;29;20035;-90
2022/12/15 06:56:12;;;;;;;92.80;67.22;;;128.00;2252.80;;;;;;4954805;29;20160;-88
2022/12/15 06:58:38;;;;;;;71.82;54.53;;;128.00;2252.80;;;;;;4954804;29;20059;-89
2022/12/15 07:01:35;;;;;;;62.25;44.63;;;128.00;2252.80;;;;;;4954838;29;20056;-89
2022/12/15 07:04:04;;;;;;;52.47;37.63;;;128.20;2252.80;;;;;;4955898;28;20480;-89
2022/12/15 07:06:36;;;;;;;60.55;38.88;;;128.30;2252.80;;;;;;4954604;29;20031;-89
2022/12/15 07:09:06;;;;;;;64.32;44.97;;;128.30;2252.80;;;;;;4954783;29;20027;-90
2022/12/15 07:11:32;;;;;;;59.50;45.38;;;128.30;2252.80;;;;;;4955238;29;20086;-89
2022/12/15 07:13:57;;;;;;;85.32;59.53;;;128.30;2252.80;;;;;;4954870;29;20031;-89
2022/12/15 07:16:25;;;;;;;58.83;42.47;;;128.40;2252.80;;;;;;4955131;29;20035;-89
2022/12/15 07:18:51;;;;;;;60.55;42.08;;;128.30;2252.80;;;;;;4954779;28;20027;-90
2022/12/15 07:21:17;;;;;;;66.85;41.10;;;128.40;2252.80;;;;;;4957918;29;20020;-91
2022/12/15 07:23:43;;;;;;;55.55;37.40;;;128.50;2252.80;;;;;;4958695;29;20031;-91
2022/12/15 07:26:09;;;;;;;50.63;35.25;;;128.00;2252.80;;;;;;4958539;29;20027;-91
2022/12/15 07:28:36;;;;;;;49.22;30.13;;;128.80;2252.80;;;;;;4958353;29;20483;-90
2022/12/15 07:31:04;;;;;;;44.00;31.38;;;153.70;2252.80;;;;;;4958645;29;20088;-90
2022/12/15 07:33:36;;;;;;;39.03;28.77;;;128.80;2252.80;;;;;;4958321;29;20110;-90
2022/12/15 07:36:03;;;;;;;32.13;23.33;;;128.80;2252.80;;;;;;4958562;29;20038;-90
2022/12/15 07:38:30;;;;;;;35.63;26.52;;;128.90;2252.80;;;;;;4958363;29;20042;-90
2022/12/15 07:41:01;;;;;;;46.45;31.75;;;128.70;2252.80;;;;;;4958343;29;20125;-90
2022/12/15 07:43:28;;;;;;;42.72;31.08;;;128.90;2252.80;;;;;;4958378;29;20094;-89
2022/12/15 07:45:54;;;;;;;40.80;28.10;;;128.80;2252.80;;;;;;4958028;29;20054;-91
2022/12/15 07:48:20;;;;;;;26.70;20.70;;;128.90;2252.80;;;;;;4964990;28;20054;-88
2022/12/15 07:50:46;;;;;;;27.20;19.95;;;128.90;2252.80;;;;;;4977097;28;20031;-90
2022/12/15 07:53:12;;;;;;;33.78;23.00;;;128.90;2252.80;;;;;;4977341;28;20058;-89
2022/12/15 07:55:38;;;;;;;34.40;25.08;;;153.60;2252.80;;;;;;4976741;28;20062;-90
2022/12/15 07:58:04;;;;;;;33.78;26.17;;;;;;;;;;4977256;28;20027;-90
2022/12/15 08:00:30;;;;;;;28.17;21.15;;;;;;;;;;4977149;28;20030;-90
2022/12/15 08:02:56;;;;;;;29.65;21.23;;;153.90;2252.80;;;;;;4976882;28;20031;-90
2022/12/15 08:05:22;;;;;;;39.95;28.42;;;153.70;2252.80;;;;;;4976931;28;20495;-89
2022/12/15 08:07:48;;;;;;;54.83;39.30;;;;;;;;;;4976723;28;20031;-87
2022/12/15 08:10:14;;;;;;;54.92;40.05;;;;;;;;;;4976845;28;20030;-89
2022/12/15 08:12:40;;;;;;;166.20;125.97;;;;;;;;;;4976941;28;20096;-89
2022/12/15 08:15:07;;;;;;;45.97;37.28;;;;;;;;;;4976986;28;20027;-89
2022/12/15 08:17:34;;;;;;;37.30;27.88;;;;;;;;;;4976534;28;20484;-90
2022/12/15 08:20:00;;;;;;;36.88;26.95;;;;;;;;;;4976678;28;20479;-87
2022/12/15 08:22:26;;;;;;;58.38;41.03;;;;;;;;;;4976472;28;20018;-86
2022/12/15 08:24:52;;;;;;;61.08;44.30;;;154.30;2252.80;;;;;;4976485;28;20451;-88
2022/12/15 08:27:19;;;;;;;46.72;35.63;;;;;;;;;;4976536;28;20085;-89
2022/12/15 08:29:45;;;;;;;47.92;35.53;;;;;;;;;;4975990;28;20082;-89
2022/12/15 08:32:13;;;;;;;39.80;26.63;;;;;;;;;;4976179;28;20493;-88
2022/12/15 08:34:41;;;;;;;36.50;26.33;;;;;;;;;;4976380;28;20031;-88
2022/12/15 08:37:07;;;;;;;42.95;29.30;;;;;;;;;;4976302;28;20034;-89
2022/12/15 08:39:33;;;;;;;51.28;37.45;;;;;;;;;;4976388;28;20027;-89
2022/12/15 08:41:59;;;;;;;55.13;39.08;;;154.50;2252.80;;;;;;4981180;28;20011;-88
2022/12/15 08:44:25;;;;;;;59.28;47.67;;;154.40;2252.80;;;;;;5000336;28;20046;-88
2022/12/15 08:46:51;;;;;;;60.88;45.35;;;179.40;2252.80;;;;;;5000764;28;20038;-89
2022/12/15 08:49:17;;;;;;;62.15;44.17;;;154.30;2252.80;;;;;;5000652;28;20007;-89
2022/12/15 08:51:42;;;;;;;100.47;62.70;;;154.40;2252.80;;;;;;4991759;28;20031;-89
2022/12/15 08:54:08;;;;;;;51.03;37.38;;;154.50;2252.80;;;;;;4976293;28;20031;-89
2022/12/15 08:56:34;;;;;;;51.03;38.70;;;154.50;2252.80;;;;;;4975995;28;20487;-90
2022/12/15 08:59:02;;;;;;;45.10;32.85;;;154.50;2252.80;;;;;;4976380;28;20031;-89
2022/12/15 09:01:37;;;;;;;49.33;36.10;;;154.40;2252.80;;;;;;4976338;28;20161;-89
2022/12/15 09:04:05;;;;;;;49.28;35.95;;;154.50;2252.80;;;;;;4976848;28;20035;-89
2022/12/15 09:06:33;;;;;;;45.25;35.25;;;154.50;2252.80;;;;;;4976388;28;20131;-89
2022/12/15 09:09:01;;;;;;;35.08;27.25;;;154.40;1996.80;;;;;;4976351;28;20046;-88
2022/12/15 09:11:28;;;;;;;37.63;27.90;;;154.40;2252.80;;;;;;4976205;28;20026;-89
2022/12/15 09:13:54;;;;;;;37.05;27.83;;;154.50;2252.80;;;;;;4975904;28;20037;-88
2022/12/15 09:16:20;;;;;;;53.97;37.42;;;179.20;2252.80;;;;;;4976459;28;20389;-88
2022/12/15 09:18:51;;;;;;;133.25;84.85;;;179.30;2252.80;;;;;;4974578;28;20030;-89
2022/12/15 09:21:21;;;;;;;51.80;37.28;;;179.40;2252.80;;;;;;4975732;28;20026;-90
2022/12/15 09:23:50;;;;;;;97.93;57.53;;;179.40;2252.80;;;;;;4974864;28;20031;-88
2022/12/15 09:26:16;;;;;;;72.53;49.22;;;179.50;2252.80;;;;;;4975299;28;20058;-88
2022/12/15 09:28:42;;;;;;;76.45;49.85;;;179.50;2252.80;;;;;;4975515;28;20081;-88
2022/12/15 09:31:20;;;;;;;62.70;44.38;;;179.60;2124.80;;;;;;4975438;28;20031;-90
2022/12/15 09:33:47;;;;;;;56.30;38.25;;;179.40;2252.80;;;;;;4975273;28;20422;-90
2022/12/15 09:36:13;;;;;;;56.72;41.17;;;179.50;2252.80;;;;;;4975527;28;20031;-90
2022/12/15 09:38:40;;;;;;;46.55;35.53;;;179.60;2252.80;;;;;;4968938;28;20114;-88
2022/12/15 09:41:12;;;;;;;94.20;63.03;;;179.60;2252.80;;;;;;4974902;28;20022;-87
2022/12/15 09:43:59;;;;;;;102.77;75.20;;;179.60;2252.80;;;;;;4974387;28;20027;-88
2022/12/15 09:46:52;;;;;;;75.53;53.67;;;179.70;2252.80;;;;;;4974683;28;20387;-86
2022/12/15 09:49:37;;;;;;;;;;;179.70;2252.80;;;;;;4975255;28;20034;-85
2022/12/15 09:52:14;;;;;;;79.43;56.00;;;179.50;2252.80;;;;;;4974937;28;19910;-85
2022/12/15 09:54:42;;;;;;;84.50;62.08;;;179.50;2252.80;;;;;;4974369;28;20037;-88
2022/12/15 09:57:18;;;;;;;83.85;60.50;;;179.60;2252.80;;;;;;4974511;28;20051;-89
2022/12/15 09:59:55;;;;;;;80.40;58.10;;;179.50;2252.80;;;;;;4974808;28;20031;-86
2022/12/15 10:02:54;;;;;;;90.40;63.72;;;179.60;2252.80;;;;;;4974460;28;20184;-86
2022/12/15 10:05:32;;;;;;;90.72;65.65;;;179.60;2252.80;;;;;;4974652;28;20105;-84
2022/12/15 10:07:59;;;;;;;294.90;176.02;;;179.70;2252.80;;;;;;4963086;28;20090;-83
2022/12/15 10:10:41;;;;;;;85.25;61.45;;;179.70;2252.80;;;;;;4961437;28;20045;-86
2022/12/15 10:13:19;;;;;;;78.43;54.92;;;179.80;2252.80;;;;;;4964813;28;20033;-82
2022/12/15 10:15:52;;;;;;;125.30;80.05;;;179.80;2252.80;;;;;;4959728;28;20066;-85
2022/12/15 10:18:39;;;;;;;95.10;63.25;;;179.80;2252.80;;;;;;4954915;29;20092;-86
2022/12/15 10:21:12;;;;;;;93.03;59.70;;;179.90;2252.80;;;;;;4954849;29;20027;-83
2022/12/15 10:23:39;;;;;;;78.88;55.55;;;179.90;1945.60;;;;;;4954850;29;20038;-83
2022/12/15 10:26:25;;;;;;;88.63;58.35;;;180.00;2252.80;;;;;;4954418;29;20035;-84
2022/12/15 10:29:03;;;;;;;103.20;66.68;;;180.10;2252.80;;;;;;4954258;29;20031;-84
2022/12/15 10:31:51;;;;;;;93.05;59.75;;;204.80;2252.80;;;;;;4954862;29;20388;-84
2022/12/15 10:34:27;;;;;;;76.47;52.92;;;204.80;2048.00;;;;;;4954876;29;20031;-83
2022/12/15 10:36:54;;;;;;;92.47;61.70;;;205.00;2252.80;;;;;;4954599;29;20035;-87
2022/12/15 10:39:20;;;;;;;93.18;63.45;;;204.90;2176.00;;;;;;4954728;29;20027;-85
2022/12/15 10:42:05;;;;;;;107.32;68.60;;;205.00;2252.80;;;;;;4954458;29;20034;-86
2022/12/15 10:44:36;;;;;;;139.45;86.35;;;205.00;2252.80;;;;;;4954554;29;20031;-87
2022/12/15 10:47:30;;;;;;;94.32;69.55;;;;;;;;;;4954628;29;20023;-85
2022/12/15 10:49:56;;;;;;;;;;;;;;;;;;4951323;29;20039;-86
2022/12/15 10:52:24;;;;;;;64.57;44.70;;;;;;;;;;4954597;29;19977;-83
2022/12/15 10:54:51;;;;;;;62.08;44.38;;;;;;;;;;4956908;28;20382;-81
2022/12/15 10:57:29;;;;;;;136.82;86.40;;;;;;;;;;4957542;29;20106;-79
2022/12/15 10:59:56;;;;;;;84.10;59.63;;;;;;;;;;4958410;29;20127;-89
2022/12/15 11:02:22;;;;;;;104.97;66.90;;;;;;;;;;4958418;29;20023;-84
2022/12/15 11:04:55;;;;;;;117.28;79.13;;;205.40;1894.40;;;;;;4957906;29;20534;-81
2022/12/15 11:07:22;;;;;;;160.20;109.15;;;205.20;2252.80;;;;;;4958253;29;20035;-83
2022/12/15 11:09:48;;;;;;;86.45;64.53;;;205.20;2252.80;;;;;;4960792;29;20086;-85
2022/12/15 11:15:20;;;;;;;77.65;52.63;;;205.30;2252.80;;;;;;4960845;29;20071;-84
2022/12/15 11:17:56;;;;;;;81.78;58.92;;;205.50;2252.80;;;;;;4969954;29;20027;-82
2022/12/15 11:20:33;;;;;;;79.32;56.25;;;205.50;2252.80;;;;;;4969973;29;20031;-86
2022/12/15 11:23:10;;;;;;;64.25;46.22;;;205.50;2252.80;;;;;;4961504;28;20054;-86
2022/12/15 11:25:45;;;;;;;77.65;54.55;;;205.50;2252.80;;;;;;4959754;29;20081;-86
2022/12/15 11:28:23;;;;;;;89.60;61.80;;;205.60;2252.80;;;;;;4959707;29;20047;-85
2022/12/15 11:31:10;;;;;;;78.40;58.97;;;205.60;2252.80;;;;;;4960319;29;20106;-86
2022/12/15 11:33:35;;;;;;;71.85;52.72;;;205.60;2252.80;;;;;;4957909;29;20027;-89
2022/12/15 11:36:13;;;;;;;71.47;54.67;;;205.70;2252.80;;;;;;4965536;28;20038;-87
2022/12/15 11:39:09;;;;;;;66.63;46.88;;;205.70;2252.80;;;;;;4977240;28;20030;-89
2022/12/15 11:42:00;;;;;;;56.15;40.55;;;205.70;2252.80;;;;;;4976737;28;20049;-84
2022/12/15 11:45:13;;;;;;;42.35;32.70;;;205.40;2252.80;;;;;;4975382;28;20027;-88
2022/12/15 11:48:08;;;;;;;43.17;31.17;;;230.40;1996.80;;;;;;4976950;28;20034;-88
2022/12/15 11:50:51;;;;;;;43.75;34.20;;;230.40;2252.80;;;;;;4976768;28;20031;-86
2022/12/15 11:53:50;;;;;;;40.83;32.60;;;230.50;2252.80;;;;;;4977127;28;20114;-87
2022/12/15 11:56:27;;;;;;;41.30;30.02;;;230.80;2252.80;;;;;;4976716;28;20051;-87
2022/12/15 11:59:07;;;;;;;49.35;39.05;;;230.70;1945.60;;;;;;4977415;28;20117;-88
2022/12/15 12:01:42;;;;;;;42.60;32.33;;;230.90;2252.80;;;;;;4976759;28;20479;-87
2022/12/15 12:04:16;;;;;;;35.08;28.83;;;231.10;2252.80;;;;;;4968692;28;20027;-88
2022/12/15 12:06:51;;;;;;;77.13;57.53;;;231.30;2252.80;;;;;;4970515;28;20125;-90
2022/12/15 12:09:35;;;;;;;64.13;48.45;;;231.30;2252.80;;;;;;4964867;28;20447;-89
2022/12/15 12:12:19;;;;;;;44.10;35.35;;;256.10;2252.80;;;;;;4964719;28;20027;-87
2022/12/15 12:15:06;;;;;;;55.00;41.75;;;256.20;2252.80;;;;;;4963252;28;20037;-88
2022/12/15 12:17:44;;;;;;;57.28;43.00;;;256.30;2252.80;;;;;;4971511;28;20030;-89
2022/12/15 12:20:17;;;;;;;92.97;66.70;;;256.50;2252.80;;;;;;4973819;28;20027;-89
2022/12/15 12:22:58;;;;;;;;;;;256.50;2252.80;;;;;;4977571;28;20093;-89
2022/12/15 12:25:24;;;;;;;51.97;38.50;;;256.60;2252.80;;;;;;4976852;28;19917;-90
2022/12/15 12:27:54;;;;;;;53.42;40.95;;;256.70;2252.80;;;;;;4976829;28;20066;-89
2022/12/15 12:30:24;;;;;;;48.58;35.38;;;256.50;2252.80;;;;;;4977103;28;20023;-87
2022/12/15 12:32:53;;;;;;;46.58;34.80;;;256.30;2252.80;;;;;;4968511;28;20365;-89
2022/12/15 12:35:43;;;;;;;51.10;38.55;;;256.30;2252.80;;;;;;4960188;28;20034;-89
2022/12/15 12:38:11;;;;;;;56.28;43.78;;;256.50;2252.80;;;;;;4963651;28;20038;-89
2022/12/15 12:41:00;;;;;;;55.63;41.80;;;256.70;2252.80;;;;;;4965387;28;20058;-88
2022/12/15 12:43:33;;;;;;;43.88;34.58;;;256.60;2252.80;;;;;;4969111;28;20161;-88
2022/12/15 12:46:21;;;;;;;58.20;45.65;;;256.70;2252.80;;;;;;4968898;28;20027;-89
2022/12/15 12:48:59;;;;;;;65.18;50.55;;;256.70;2252.80;;;;;;4969880;28;20058;-89
2022/12/15 12:51:52;;;;;;;59.58;48.25;;;256.80;2252.80;;;;;;4968583;28;20046;-89
2022/12/15 12:54:40;;;;;;;73.25;60.00;;;256.80;2252.80;;;;;;4972884;28;20035;-87
2022/12/15 12:57:08;;;;;;;91.35;76.03;;;256.80;2252.80;;;;;;4975633;28;20143;-88
2022/12/15 12:59:39;;;;;;;193.27;121.72;;;256.80;2252.80;;;;;;4976501;28;20031;-87
2022/12/15 13:02:14;;;;;;;95.32;67.50;;;256.70;2252.80;;;;;;4977229;28;20082;-85
2022/12/15 13:04:50;;;;;;;79.60;61.17;;;256.70;2252.80;;;;;;4975529;28;20129;-86
2022/12/15 13:07:37;;;;;;;67.57;51.72;;;256.70;2252.80;;;;;;4975610;28;20390;-86
2022/12/15 13:10:21;;;;;;;64.32;48.03;;;256.80;2252.80;;;;;;4975487;28;20038;-86
2022/12/15 13:12:50;;;;;;;67.00;47.58;;;256.80;2252.80;;;;;;4972681;28;20039;-88
2022/12/15 13:15:22;;;;;;;72.50;50.97;;;256.90;2252.80;;;;;;4975680;28;20089;-89
2022/12/15 13:17:53;;;;;;;85.50;57.20;;;281.60;2278.40;;;;;;4974454;28;20030;-88
2022/12/15 13:20:30;;;;;;;70.40;48.53;;;281.70;2278.40;;;;;;4976037;28;20097;-88
2022/12/15 13:23:22;;;;;;;52.28;43.05;;;281.60;2278.40;;;;;;4961882;28;20567;-90
2022/12/15 13:25:57;;;;;;;48.55;36.22;;;256.80;2252.80;;;;;;4961922;28;20121;-88
2022/12/15 13:28:35;;;;;;;50.90;36.92;;;256.80;2252.80;;;;;;4956336;29;20035;-89
2022/12/15 13:31:15;;;;;;;55.00;39.08;;;256.60;2252.80;;;;;;4968576;28;20037;-89
2022/12/15 13:33:51;;;;;;;62.60;41.75;;;256.70;2252.80;;;;;;4975576;28;20031;-90
2022/12/15 13:36:38;;;;;;;54.50;38.45;;;256.70;2252.80;;;;;;4976321;28;20110;-88
2022/12/15 13:39:24;;;;;;;53.70;40.08;;;256.60;2252.80;;;;;;4975180;28;20383;-88
2022/12/15 13:41:52;;;;;;;76.07;51.75;;;256.60;2252.80;;;;;;4975106;28;20538;-86
2022/12/15 13:44:46;;;;;;;84.32;63.13;;;256.50;2252.80;;;;;;4975002;28;20034;-88
2022/12/15 13:47:20;;;;;;;90.97;60.58;;;;;;;;;;4975271;28;20031;-89
2022/12/15 13:49:54;;;;;;;86.53;60.97;;;;;;;;;;4991249;28;20019;-88
2022/12/15 13:52:23;;;;;;;77.32;54.92;;;;;;;;;;4991453;28;20027;-90
2022/12/15 13:54:54;;;;;;;81.95;61.90;;;;;;;;;;4975206;28;20493;-90
2022/12/15 13:57:22;;;;;;;75.00;54.72;;;;;;;;;;4975002;28;20057;-89
2022/12/15 13:59:50;;;;;;;84.78;57.50;;;;;;;;;;4973260;28;20023;-89
2022/12/15 14:02:30;;;;;;;77.32;57.10;;;;;;;;;;4966415;28;20023;-91
2022/12/15 14:05:15;;;;;;;89.53;67.95;;;;;;;;;;4955815;29;20045;-91
2022/12/15 14:07:42;;;;;;;99.15;71.18;;;;;;;;;;4956126;29;20031;-90
2022/12/15 14:10:16;;;;;;;99.40;72.25;;;;;;;;;;4955611;29;20019;-89
2022/12/15 14:12:43;;;;;;;90.15;63.60;;;;;;;;;;4955641;29;20383;-91
2022/12/15 14:15:17;;;;;;;81.18;61.35;;;;;;;;;;4955706;29;20119;-89
2022/12/15 14:17:47;;;;;;;84.60;65.97;;;;;;;;;;4956220;29;20039;-92
2022/12/15 14:20:18;;;;;;;86.10;65.75;;;;;;;;;;4955628;29;20051;-90
2022/12/15 14:22:44;;;;;;;122.20;81.88;;;;;;;;;;4957598;28;20023;-89
2022/12/15 14:25:13;;;;;;;163.27;103.28;;;256.30;2252.80;;;;;;4964876;28;20130;-90
2022/12/15 14:27:39;;;;;;;189.23;122.20;;;256.00;2252.80;;;;;;4974774;28;20113;-90
2022/12/15 14:30:28;;;;;;;229.85;151.32;;;256.00;2252.80;;;;;;4974702;28;20050;-91
2022/12/15 14:33:01;;;;;;;265.50;165.90;;;;;;;;;;4975179;28;20027;-90
2022/12/15 14:35:27;;;;;;;234.18;156.45;;;231.30;2252.80;;;;;;4974920;28;20031;-89
2022/12/15 14:37:55;;;;;;;252.80;161.68;;;231.10;2252.80;;;;;;4975071;28;20497;-92
2022/12/15 14:40:23;;;;;;;281.52;181.23;;;231.00;2252.80;;;;;;4974681;28;20026;-91
2022/12/15 14:42:50;;;;;;;235.15;167.48;;;231.00;2252.80;;;;;;4974911;28;20027;-91
2022/12/15 14:45:23;;;;;;;229.65;156.90;;;230.90;2252.80;;;;;;4964951;28;20030;-92
2022/12/15 14:48:09;;;;;;;187.18;118.18;;;230.90;2252.80;;;;;;4955330;29;20048;-91
2022/12/15 14:50:35;;;;;;;140.07;93.43;;;230.80;2252.80;;;;;;4954881;29;20043;-91
2022/12/15 14:53:10;;;;;;;156.35;98.65;;;230.80;2252.80;;;;;;4955266;29;20027;-88
2022/12/15 14:55:38;;;;;;;177.63;122.32;;;230.60;2252.80;;;;;;4955069;28;20101;-89
2022/12/15 14:58:22;;;;;;;208.43;145.38;;;230.60;2099.20;;;;;;4955454;29;20078;-90
2022/12/15 15:00:51;;;;;;;212.75;149.73;;;205.70;2252.80;;;;;;4955359;29;20035;-90
2022/12/15 15:03:25;;;;;;;229.60;155.15;;;230.50;2252.80;;;;;;4955201;29;20027;-89